createdAt,value
2024-02-17T00:00:21.397Z,63.89
2024-02-17T00:00:53.423Z,63.58
2024-02-17T00:01:25.483Z,63.77
2024-02-17T00:01:57.452Z,63.69
2024-02-17T00:02:29.682Z,64.23
2024-02-17T00:03:02.536Z,64.23
2024-02-17T00:03:34.625Z,64.74
2024-02-17T00:04:06.783Z,64.96
2024-02-17T00:04:38.794Z,64.75
2024-02-17T00:05:10.888Z,65.05
2024-02-17T00:05:43.082Z,64.43
2024-02-17T00:06:15.121Z,64.62
2024-02-17T00:06:47.083Z,64.07
2024-02-17T00:07:19.060Z,64.17
2024-02-17T00:07:51.159Z,63.46
2024-02-17T00:08:51.867Z,63.41
2024-02-17T00:09:23.826Z,63.14
2024-02-17T00:09:55.734Z,62.69
2024-02-17T00:10:27.678Z,63.40
2024-02-17T00:10:59.690Z,62.84
2024-02-17T00:11:31.649Z,62.74
2024-02-17T00:12:03.761Z,63.07
2024-02-17T00:12:36.156Z,62.51
2024-02-17T00:13:08.121Z,62.83
2024-02-17T00:13:40.069Z,62.35
2024-02-17T00:14:12.042Z,62.15
2024-02-17T00:14:43.985Z,62.48
2024-02-17T00:15:16.144Z,62.17
2024-02-17T00:15:48.371Z,61.67
2024-02-17T00:16:20.801Z,62.31
2024-02-17T00:16:53.066Z,62.14
2024-02-17T00:17:24.970Z,62.10
2024-02-17T00:17:57.051Z,62.18
2024-02-17T00:18:30.376Z,62.91
2024-02-17T00:19:02.584Z,63.07
2024-02-17T00:19:34.782Z,62.44
2024-02-17T00:20:08.679Z,62.57
2024-02-17T00:20:41.007Z,63.03
2024-02-17T00:21:12.976Z,62.12
2024-02-17T00:21:45.034Z,62.72
2024-02-17T00:22:17.906Z,62.60
2024-02-17T00:22:51.211Z,62.86
2024-02-17T00:23:23.249Z,62.57
2024-02-17T00:23:55.245Z,62.06
2024-02-17T00:24:27.330Z,62.55
2024-02-17T00:24:59.280Z,62.33
2024-02-17T00:25:31.186Z,62.79
2024-02-17T00:26:03.133Z,62.94
2024-02-17T00:26:35.112Z,63.05
2024-02-17T00:27:07.141Z,62.57
2024-02-17T00:27:39.089Z,62.77
2024-02-17T00:28:10.951Z,62.75
2024-02-17T00:28:43.129Z,63.18
2024-02-17T00:29:16.659Z,62.29
2024-02-17T00:29:48.679Z,62.75
2024-02-17T00:30:22.153Z,62.64
2024-02-17T00:30:55.038Z,63.31
2024-02-17T00:31:26.961Z,62.79
2024-02-17T00:31:58.854Z,62.41
2024-02-17T00:32:30.741Z,62.99
2024-02-17T00:33:04.951Z,62.73
2024-02-17T00:33:40.224Z,62.80
2024-02-17T00:34:12.946Z,62.43
2024-02-17T00:34:45.084Z,62.25
2024-02-17T00:35:17.284Z,62.06
2024-02-17T00:35:49.226Z,62.34
2024-02-17T00:36:21.197Z,62.36
2024-02-17T00:36:53.181Z,62.54
2024-02-17T00:37:25.076Z,62.66
2024-02-17T00:37:56.956Z,63.02
2024-02-17T00:38:28.816Z,62.29
2024-02-17T00:39:00.699Z,62.52
2024-02-17T00:39:32.713Z,62.28
2024-02-17T00:40:07.181Z,61.92
2024-02-17T00:40:40.737Z,62.57
2024-02-17T00:41:12.678Z,62.21
2024-02-17T00:41:45.555Z,61.98
2024-02-17T00:42:17.437Z,62.45
2024-02-17T00:42:49.525Z,62.82
2024-02-17T00:43:23.298Z,62.94
2024-02-17T00:43:55.279Z,62.20
2024-02-17T00:44:27.257Z,62.97
2024-02-17T00:44:59.366Z,62.90
2024-02-17T00:45:31.448Z,62.70
2024-02-17T00:46:03.847Z,62.77
2024-02-17T00:46:35.849Z,62.75
2024-02-17T00:47:07.943Z,62.51
2024-02-17T00:47:39.876Z,62.37
2024-02-17T00:48:11.901Z,62.45
2024-02-17T00:48:44.006Z,63.10
2024-02-17T00:49:16.187Z,63.08
2024-02-17T00:49:48.477Z,63.09
2024-02-17T00:50:20.674Z,63.88
2024-02-17T00:51:01.906Z,64.13
2024-02-17T00:51:40.629Z,64.05
2024-02-17T00:52:12.709Z,64.56
2024-02-17T00:52:44.793Z,64.30
2024-02-17T00:53:16.668Z,64.24
2024-02-17T00:53:48.670Z,64.46
2024-02-17T00:54:20.683Z,64.29
2024-02-17T00:54:52.680Z,65.31
2024-02-17T00:55:24.783Z,64.62
2024-02-17T00:55:57.500Z,64.62
2024-02-17T00:56:29.380Z,65.56
2024-02-17T00:57:01.336Z,65.29
2024-02-17T00:57:33.339Z,65.92
2024-02-17T00:58:05.415Z,66.16
2024-02-17T00:58:37.402Z,65.76
2024-02-17T00:59:09.358Z,65.90
2024-02-17T00:59:41.248Z,66.41
2024-02-17T01:00:14.305Z,66.89
2024-02-17T01:00:46.236Z,66.41
2024-02-17T01:01:26.012Z,66.92
2024-02-17T01:02:02.602Z,66.93
2024-02-17T01:02:34.518Z,66.64
2024-02-17T01:03:06.412Z,66.63
2024-02-17T01:03:38.448Z,66.59
2024-02-17T01:04:10.680Z,66.36
2024-02-17T01:04:42.642Z,65.98
2024-02-17T01:05:14.668Z,66.04
2024-02-17T01:05:46.661Z,66.48
2024-02-17T01:06:18.756Z,66.70
2024-02-17T01:06:50.868Z,66.48
2024-02-17T01:07:22.963Z,66.96
2024-02-17T01:07:54.986Z,66.69
2024-02-17T01:08:37.858Z,66.20
2024-02-17T01:09:16.553Z,66.84
2024-02-17T01:09:48.551Z,67.10
2024-02-17T01:10:20.944Z,67.09
2024-02-17T01:10:53.098Z,67.11
2024-02-17T01:11:25.089Z,67.11
2024-02-17T01:11:57.053Z,66.29
2024-02-17T01:12:28.947Z,67.07
2024-02-17T01:13:00.849Z,66.99
2024-02-17T01:13:32.776Z,66.65
2024-02-17T01:14:04.733Z,67.17
2024-02-17T01:14:36.660Z,67.80
2024-02-17T01:15:09.455Z,67.42
2024-02-17T01:15:41.377Z,67.76
2024-02-17T01:16:13.329Z,67.65
2024-02-17T01:16:45.224Z,67.04
2024-02-17T01:17:17.160Z,66.73
2024-02-17T01:17:49.344Z,67.04
2024-02-17T01:18:21.480Z,66.53
2024-02-17T01:18:56.087Z,66.56
2024-02-17T01:19:28.338Z,67.56
2024-02-17T01:20:00.531Z,66.76
2024-02-17T01:20:32.531Z,66.94
2024-02-17T01:21:04.456Z,66.94
2024-02-17T01:21:36.893Z,67.01
2024-02-17T01:22:10.062Z,67.50
2024-02-17T01:22:42.396Z,67.50
2024-02-17T01:23:14.314Z,67.66
2024-02-17T01:23:46.260Z,68.25
2024-02-17T01:24:18.311Z,68.16
2024-02-17T01:24:50.353Z,67.69
2024-02-17T01:25:23.643Z,68.54
2024-02-17T01:25:56.706Z,68.97
2024-02-17T01:26:29.784Z,68.62
2024-02-17T01:27:01.789Z,68.95
2024-02-17T01:27:33.857Z,68.19
2024-02-17T01:28:06.694Z,69.00
2024-02-17T01:28:38.680Z,68.29
2024-02-17T01:29:11.100Z,68.73
2024-02-17T01:29:43.646Z,68.92
2024-02-17T01:30:15.629Z,69.75
2024-02-17T01:30:47.685Z,69.79
2024-02-17T01:31:19.641Z,69.78
2024-02-17T01:31:52.907Z,69.62
2024-02-17T01:32:24.875Z,69.55
2024-02-17T01:32:56.924Z,70.17
2024-02-17T01:33:28.975Z,69.67
2024-02-17T01:34:00.942Z,69.56
2024-02-17T01:34:32.845Z,69.62
2024-02-17T01:35:05.093Z,70.40
2024-02-17T01:35:37.050Z,70.54
2024-02-17T01:36:18.597Z,70.38
2024-02-17T01:36:51.575Z,70.61
2024-02-17T01:37:23.588Z,70.29
2024-02-17T01:37:55.556Z,70.77
2024-02-17T01:38:27.565Z,71.17
2024-02-17T01:38:59.549Z,71.19
2024-02-17T01:39:31.495Z,71.25
2024-02-17T01:40:03.525Z,71.04
2024-02-17T01:41:10.450Z,70.72
2024-02-17T01:41:42.363Z,71.71
2024-02-17T01:42:14.303Z,70.74
2024-02-17T01:42:46.345Z,71.72
2024-02-17T01:43:18.321Z,71.30
2024-02-17T01:43:50.188Z,71.25
2024-02-17T01:44:22.115Z,71.77
2024-02-17T01:44:54.088Z,72.32
2024-02-17T01:45:26.552Z,71.74
2024-02-17T01:45:58.638Z,71.34
2024-02-17T01:46:30.950Z,71.67
2024-02-17T01:47:03.716Z,71.29
2024-02-17T01:47:35.886Z,70.93
2024-02-17T01:48:08.621Z,71.70
2024-02-17T01:48:42.394Z,71.22
2024-02-17T01:49:16.112Z,71.65
2024-02-17T01:49:48.747Z,71.73
2024-02-17T01:50:21.504Z,71.67
2024-02-17T01:50:53.553Z,71.07
2024-02-17T01:51:27.111Z,71.73
2024-02-17T01:52:01.697Z,71.28
2024-02-17T01:52:36.227Z,72.13
2024-02-17T01:53:09.985Z,71.73
2024-02-17T01:53:43.740Z,71.72
2024-02-17T01:54:17.628Z,71.82
2024-02-17T01:54:49.973Z,71.88
2024-02-17T01:55:23.364Z,71.93
2024-02-17T01:55:55.473Z,71.71
2024-02-17T01:56:27.950Z,71.69
2024-02-17T01:57:01.755Z,71.28
2024-02-17T01:57:34.650Z,71.80
2024-02-17T01:58:06.696Z,71.68
2024-02-17T01:58:38.963Z,71.64
2024-02-17T01:59:11.104Z,71.40
2024-02-17T01:59:44.546Z,71.22
2024-02-17T02:00:17.836Z,71.56
2024-02-17T02:00:50.708Z,71.46
2024-02-17T02:01:22.770Z,71.76
2024-02-17T02:01:56.522Z,70.82
2024-02-17T02:02:29.109Z,71.02
2024-02-17T02:03:02.052Z,71.02
2024-02-17T02:03:34.373Z,70.79
2024-02-17T02:04:06.602Z,71.07
2024-02-17T02:04:38.697Z,70.73
2024-02-17T02:05:11.273Z,70.48
2024-02-17T02:05:44.160Z,71.25
2024-02-17T02:06:21.648Z,71.53
2024-02-17T02:06:53.749Z,71.82
2024-02-17T02:07:25.767Z,72.05
2024-02-17T02:07:57.847Z,72.01
2024-02-17T02:08:55.230Z,71.74
2024-02-17T02:09:28.072Z,71.37
2024-02-17T02:10:00.179Z,71.89
2024-02-17T02:10:32.178Z,71.58
2024-02-17T02:11:05.271Z,71.77
2024-02-17T02:11:39.860Z,71.52
2024-02-17T02:12:11.816Z,71.33
2024-02-17T02:12:43.936Z,70.58
2024-02-17T02:13:16.097Z,70.93
2024-02-17T02:13:48.419Z,70.90
2024-02-17T02:14:21.235Z,71.01
2024-02-17T02:15:12.195Z,71.34
2024-02-17T02:15:53.008Z,71.66
2024-02-17T02:16:26.720Z,71.72
2024-02-17T02:16:58.998Z,70.66
2024-02-17T02:17:31.040Z,71.08
2024-02-17T02:18:03.181Z,71.09
2024-02-17T02:18:35.314Z,71.43
2024-02-17T02:19:08.188Z,71.28
2024-02-17T02:19:40.243Z,70.99
2024-02-17T02:20:13.201Z,71.43
2024-02-17T02:20:45.702Z,71.12
2024-02-17T02:21:17.897Z,70.72
2024-02-17T02:21:49.915Z,71.39
2024-02-17T02:22:21.889Z,70.93
2024-02-17T02:22:53.855Z,71.47
2024-02-17T02:23:25.903Z,71.45
2024-02-17T02:23:57.885Z,71.06
2024-02-17T02:24:30.767Z,71.56
2024-02-17T02:25:07.173Z,71.66
2024-02-17T02:25:43.803Z,71.49
2024-02-17T02:26:15.899Z,71.08
2024-02-17T02:26:47.826Z,70.92
2024-02-17T02:27:19.785Z,71.81
2024-02-17T02:27:53.242Z,71.53
2024-02-17T02:28:25.952Z,71.60
2024-02-17T02:29:01.220Z,71.65
2024-02-17T02:29:33.369Z,70.83
2024-02-17T02:30:06.011Z,71.49
2024-02-17T02:30:38.209Z,70.97
2024-02-17T02:31:10.247Z,71.46
2024-02-17T02:31:42.184Z,71.51
2024-02-17T02:32:14.191Z,71.46
2024-02-17T02:32:46.271Z,71.41
2024-02-17T02:33:18.433Z,71.85
2024-02-17T02:33:55.319Z,71.48
2024-02-17T02:34:27.409Z,71.20
2024-02-17T02:35:00.563Z,71.37
2024-02-17T02:35:32.680Z,71.73
2024-02-17T02:36:04.716Z,71.97
2024-02-17T02:36:36.692Z,71.98
2024-02-17T02:37:08.759Z,71.33
2024-02-17T02:37:40.710Z,71.28
2024-02-17T02:38:12.770Z,71.30
2024-02-17T02:38:46.186Z,71.27
2024-02-17T02:39:18.066Z,71.62
2024-02-17T02:39:50.132Z,70.98
2024-02-17T02:40:22.016Z,70.98
2024-02-17T02:41:03.797Z,71.08
2024-02-17T02:41:35.676Z,71.33
2024-02-17T02:42:07.694Z,71.90
2024-02-17T02:42:40.958Z,71.72
2024-02-17T02:43:12.956Z,71.58
2024-02-17T02:43:45.807Z,72.05
2024-02-17T02:44:17.977Z,71.43
2024-02-17T02:44:49.871Z,72.18
2024-02-17T02:45:22.125Z,71.84
2024-02-17T02:45:54.300Z,71.84
2024-02-17T02:46:26.270Z,71.74
2024-02-17T02:46:58.183Z,72.02
2024-02-17T02:47:30.147Z,72.24
2024-02-17T02:48:02.160Z,72.11
2024-02-17T02:48:34.349Z,72.36
2024-02-17T02:49:06.377Z,71.74
2024-02-17T02:49:38.409Z,72.18
2024-02-17T02:50:12.268Z,72.62
2024-02-17T02:50:44.541Z,72.82
2024-02-17T02:51:18.280Z,73.00
2024-02-17T02:51:50.247Z,72.81
2024-02-17T02:52:22.214Z,73.43
2024-02-17T02:52:54.343Z,73.07
2024-02-17T02:53:26.653Z,73.32
2024-02-17T02:53:58.585Z,73.86
2024-02-17T02:54:30.762Z,73.35
2024-02-17T02:55:02.731Z,73.68
2024-02-17T02:55:34.708Z,74.06
2024-02-17T02:56:06.880Z,73.99
2024-02-17T02:56:38.780Z,74.25
2024-02-17T02:57:10.680Z,74.47
2024-02-17T02:57:42.700Z,74.00
2024-02-17T02:58:14.676Z,74.64
2024-02-17T02:58:46.604Z,74.28
2024-02-17T02:59:18.513Z,74.67
2024-02-17T02:59:51.718Z,74.67
2024-02-17T03:00:23.854Z,74.58
2024-02-17T03:00:55.930Z,74.31
2024-02-17T03:01:27.926Z,74.66
2024-02-17T03:01:59.849Z,74.61
2024-02-17T03:02:31.766Z,74.05
2024-02-17T03:03:04.063Z,74.82
2024-02-17T03:03:36.204Z,74.84
2024-02-17T03:04:08.233Z,74.67
2024-02-17T03:04:40.449Z,74.71
2024-02-17T03:05:12.485Z,74.35
2024-02-17T03:05:44.490Z,74.82
2024-02-17T03:06:16.666Z,74.16
2024-02-17T03:06:48.771Z,74.90
2024-02-17T03:07:20.937Z,75.05
2024-02-17T03:07:52.951Z,74.70
2024-02-17T03:08:24.868Z,74.29
2024-02-17T03:09:12.739Z,74.21
2024-02-17T03:09:45.040Z,74.73
2024-02-17T03:10:17.309Z,74.59
2024-02-17T03:10:49.303Z,74.44
2024-02-17T03:11:21.746Z,74.14
2024-02-17T03:11:53.795Z,73.96
2024-02-17T03:12:25.738Z,74.45
2024-02-17T03:12:58.050Z,74.55
2024-02-17T03:13:29.982Z,74.73
2024-02-17T03:14:02.117Z,75.07
2024-02-17T03:14:35.126Z,75.63
2024-02-17T03:15:07.681Z,75.79
2024-02-17T03:15:39.705Z,75.98
2024-02-17T03:16:11.930Z,75.62
2024-02-17T03:16:44.008Z,75.80
2024-02-17T03:17:17.846Z,75.14
2024-02-17T03:17:53.378Z,75.26
2024-02-17T03:18:25.381Z,75.59
2024-02-17T03:18:57.523Z,75.74
2024-02-17T03:19:30.582Z,75.09
2024-02-17T03:20:04.812Z,75.12
2024-02-17T03:20:36.856Z,75.20
2024-02-17T03:21:08.769Z,75.50
2024-02-17T03:21:41.958Z,75.44
2024-02-17T03:22:13.963Z,74.82
2024-02-17T03:22:46.639Z,74.70
2024-02-17T03:23:18.513Z,74.51
2024-02-17T03:23:50.411Z,74.51
2024-02-17T03:24:22.355Z,74.59
2024-02-17T03:24:54.575Z,75.05
2024-02-17T03:25:26.512Z,74.80
2024-02-17T03:25:58.434Z,74.10
2024-02-17T03:26:30.536Z,74.61
2024-02-17T03:27:02.504Z,74.74
2024-02-17T03:27:35.997Z,74.48
2024-02-17T03:28:08.224Z,74.23
2024-02-17T03:28:40.230Z,74.07
2024-02-17T03:29:12.100Z,74.71
2024-02-17T03:29:44.078Z,74.55
2024-02-17T03:30:16.155Z,74.50
2024-02-17T03:30:48.198Z,74.95
2024-02-17T03:31:20.151Z,74.64
2024-02-17T03:31:52.388Z,75.25
2024-02-17T03:32:25.253Z,74.68
2024-02-17T03:32:57.416Z,74.54
2024-02-17T03:33:30.200Z,75.04
2024-02-17T03:34:06.842Z,75.11
2024-02-17T03:34:40.916Z,74.53
2024-02-17T03:35:13.082Z,74.90
2024-02-17T03:35:44.970Z,75.25
2024-02-17T03:36:16.932Z,74.53
2024-02-17T03:36:49.046Z,75.02
2024-02-17T03:37:22.711Z,75.46
2024-02-17T03:37:54.782Z,75.97
2024-02-17T03:38:26.717Z,75.34
2024-02-17T03:38:58.678Z,76.17
2024-02-17T03:39:30.740Z,75.69
2024-02-17T03:40:04.086Z,75.79
2024-02-17T03:40:43.618Z,75.98
2024-02-17T03:41:16.668Z,76.28
2024-02-17T03:41:48.675Z,76.38
2024-02-17T03:42:20.758Z,76.48
2024-02-17T03:42:52.847Z,76.85
2024-02-17T03:43:24.987Z,76.14
2024-02-17T03:43:56.843Z,76.44
2024-02-17T03:44:28.781Z,76.22
2024-02-17T03:45:00.752Z,76.69
2024-02-17T03:45:32.862Z,76.65
2024-02-17T03:46:04.793Z,76.87
2024-02-17T03:46:36.778Z,77.00
2024-02-17T03:47:09.499Z,76.61
2024-02-17T03:47:41.504Z,76.88
2024-02-17T03:48:13.497Z,76.73
2024-02-17T03:48:45.697Z,76.99
2024-02-17T03:49:21.770Z,76.52
2024-02-17T03:49:53.938Z,76.59
2024-02-17T03:50:25.880Z,76.88
2024-02-17T03:50:57.799Z,76.51
2024-02-17T03:51:29.779Z,77.16
2024-02-17T03:52:01.998Z,77.66
2024-02-17T03:52:34.483Z,77.51
2024-02-17T03:53:06.422Z,77.39
2024-02-17T03:53:38.595Z,78.21
2024-02-17T03:54:10.560Z,78.21
2024-02-17T03:54:43.662Z,78.26
2024-02-17T03:55:15.737Z,78.46
2024-02-17T03:55:47.837Z,77.82
2024-02-17T03:56:19.856Z,78.55
2024-02-17T03:56:51.805Z,78.01
2024-02-17T03:57:24.886Z,77.75
2024-02-17T03:57:56.818Z,78.45
2024-02-17T03:58:28.910Z,78.21
2024-02-17T03:59:00.815Z,77.93
2024-02-17T03:59:33.074Z,77.90
2024-02-17T04:00:08.153Z,77.92
2024-02-17T04:00:40.269Z,78.95
2024-02-17T04:01:12.419Z,78.73
2024-02-17T04:01:44.484Z,78.70
2024-02-17T04:02:16.491Z,78.27
2024-02-17T04:02:48.467Z,78.14
2024-02-17T04:03:20.544Z,77.71
2024-02-17T04:03:52.505Z,77.62
2024-02-17T04:04:24.578Z,77.81
2024-02-17T04:04:56.595Z,77.17
2024-02-17T04:05:28.822Z,77.45
2024-02-17T04:06:01.015Z,76.96
2024-02-17T04:06:34.161Z,77.24
2024-02-17T04:07:06.265Z,77.45
2024-02-17T04:07:40.214Z,77.50
2024-02-17T04:08:12.398Z,77.05
2024-02-17T04:08:46.509Z,76.97
2024-02-17T04:09:37.521Z,76.96
2024-02-17T04:10:10.433Z,76.70
2024-02-17T04:10:43.339Z,76.17
2024-02-17T04:11:15.560Z,76.70
2024-02-17T04:11:47.573Z,76.53
2024-02-17T04:12:19.490Z,76.86
2024-02-17T04:12:51.543Z,76.62
2024-02-17T04:13:23.652Z,76.44
2024-02-17T04:13:58.576Z,76.16
2024-02-17T04:14:30.521Z,76.72
2024-02-17T04:15:02.417Z,76.33
2024-02-17T04:15:34.979Z,76.32
2024-02-17T04:16:07.147Z,76.33
2024-02-17T04:16:39.171Z,75.92
2024-02-17T04:17:11.109Z,76.23
2024-02-17T04:17:43.074Z,76.23
2024-02-17T04:18:15.127Z,76.26
2024-02-17T04:18:47.722Z,76.62
2024-02-17T04:19:20.546Z,76.73
2024-02-17T04:19:52.715Z,76.72
2024-02-17T04:20:24.843Z,76.28
2024-02-17T04:20:56.850Z,76.52
2024-02-17T04:21:29.164Z,76.77
2024-02-17T04:22:01.093Z,76.60
2024-02-17T04:22:33.021Z,76.97
2024-02-17T04:23:09.207Z,77.20
2024-02-17T04:23:41.236Z,77.51
2024-02-17T04:24:13.195Z,76.50
2024-02-17T04:24:46.380Z,76.95
2024-02-17T04:25:18.515Z,77.68
2024-02-17T04:25:50.391Z,78.02
2024-02-17T04:26:22.433Z,78.58
2024-02-17T04:26:54.394Z,78.54
2024-02-17T04:27:26.330Z,78.47
2024-02-17T04:27:58.765Z,78.49
2024-02-17T04:28:31.195Z,78.42
2024-02-17T04:29:03.123Z,78.88
2024-02-17T04:29:35.280Z,79.06
2024-02-17T04:30:07.999Z,79.03
2024-02-17T04:30:40.078Z,79.20
2024-02-17T04:31:12.128Z,79.62
2024-02-17T04:31:44.401Z,79.80
2024-02-17T04:32:16.305Z,80.14
2024-02-17T04:32:48.306Z,79.89
2024-02-17T04:33:20.492Z,79.28
2024-02-17T04:33:52.725Z,79.37
2024-02-17T04:34:24.865Z,79.09
2024-02-17T04:34:57.009Z,79.23
2024-02-17T04:35:29.152Z,79.15
2024-02-17T04:36:01.174Z,79.01
2024-02-17T04:36:33.164Z,79.94
2024-02-17T04:37:05.374Z,79.44
2024-02-17T04:37:37.374Z,80.02
2024-02-17T04:38:09.278Z,79.89
2024-02-17T04:38:41.949Z,80.28
2024-02-17T04:39:14.879Z,80.05
2024-02-17T04:39:46.905Z,80.33
2024-02-17T04:40:19.060Z,80.13
2024-02-17T04:40:51.156Z,80.40
2024-02-17T04:41:23.056Z,80.76
2024-02-17T04:41:56.112Z,80.25
2024-02-17T04:42:28.196Z,79.83
2024-02-17T04:43:00.162Z,79.59
2024-02-17T04:43:32.210Z,79.59
2024-02-17T04:44:04.922Z,79.29
2024-02-17T04:44:37.035Z,79.53
2024-02-17T04:45:10.841Z,80.13
2024-02-17T04:45:42.801Z,79.82
2024-02-17T04:46:15.172Z,79.22
2024-02-17T04:46:47.084Z,79.58
2024-02-17T04:47:19.042Z,79.85
2024-02-17T04:47:51.056Z,79.34
2024-02-17T04:48:23.063Z,79.78
2024-02-17T04:48:55.137Z,79.64
2024-02-17T04:49:27.156Z,79.75
2024-02-17T04:49:59.183Z,79.85
2024-02-17T04:50:31.146Z,80.09
2024-02-17T04:51:03.149Z,79.59
2024-02-17T04:51:36.322Z,79.84
2024-02-17T04:52:08.385Z,79.42
2024-02-17T04:52:40.320Z,79.24
2024-02-17T04:53:12.286Z,79.41
2024-02-17T04:53:44.231Z,78.99
2024-02-17T04:54:16.181Z,78.53
2024-02-17T04:54:48.157Z,78.37
2024-02-17T04:55:20.070Z,78.59
2024-02-17T04:55:52.152Z,78.59
2024-02-17T04:56:24.215Z,78.80
2024-02-17T04:56:56.112Z,78.89
2024-02-17T04:57:28.042Z,78.57
2024-02-17T04:58:00.179Z,79.30
2024-02-17T04:58:32.118Z,78.99
2024-02-17T04:59:04.378Z,78.64
2024-02-17T04:59:36.274Z,78.76
2024-02-17T05:00:10.129Z,78.19
2024-02-17T05:00:42.247Z,78.78
2024-02-17T05:01:14.472Z,78.65
2024-02-17T05:01:47.226Z,78.53
2024-02-17T05:02:19.177Z,78.60
2024-02-17T05:02:51.085Z,77.94
2024-02-17T05:03:23.399Z,78.69
2024-02-17T05:03:55.508Z,78.21
2024-02-17T05:04:27.628Z,78.63
2024-02-17T05:04:59.725Z,78.17
2024-02-17T05:05:31.731Z,77.83
2024-02-17T05:06:04.423Z,78.23
2024-02-17T05:06:36.381Z,77.64
2024-02-17T05:07:08.867Z,77.38
2024-02-17T05:07:40.830Z,77.42
2024-02-17T05:08:38.265Z,77.08
2024-02-17T05:09:11.321Z,77.03
2024-02-17T05:09:43.355Z,77.31
2024-02-17T05:10:15.430Z,76.71
2024-02-17T05:10:47.327Z,77.10
2024-02-17T05:11:19.224Z,77.02
2024-02-17T05:11:51.173Z,76.88
2024-02-17T05:12:23.257Z,77.84
2024-02-17T05:12:55.298Z,78.20
2024-02-17T05:13:27.444Z,78.21
2024-02-17T05:13:59.477Z,78.61
2024-02-17T05:14:31.498Z,78.66
2024-02-17T05:15:04.555Z,78.07
2024-02-17T05:15:36.760Z,78.73
2024-02-17T05:16:08.937Z,78.40
2024-02-17T05:16:40.846Z,78.72
2024-02-17T05:17:13.353Z,78.99
2024-02-17T05:17:45.730Z,78.52
2024-02-17T05:18:17.810Z,78.76
2024-02-17T05:18:50.010Z,79.01
2024-02-17T05:19:22.279Z,79.00
2024-02-17T05:19:54.319Z,79.06
2024-02-17T05:20:27.382Z,78.75
2024-02-17T05:20:59.300Z,78.66
2024-02-17T05:21:31.236Z,78.80
2024-02-17T05:22:03.149Z,78.53
2024-02-17T05:22:35.106Z,79.25
2024-02-17T05:23:07.717Z,78.91
2024-02-17T05:23:40.537Z,79.21
2024-02-17T05:24:12.669Z,78.83
2024-02-17T05:24:47.473Z,78.48
2024-02-17T05:25:22.574Z,78.51
2024-02-17T05:25:56.143Z,78.61
2024-02-17T05:26:37.849Z,78.67
2024-02-17T05:27:09.921Z,78.43
2024-02-17T05:27:42.124Z,78.47
2024-02-17T05:28:15.807Z,78.32
2024-02-17T05:28:47.688Z,78.83
2024-02-17T05:29:19.747Z,77.96
2024-02-17T05:29:51.713Z,78.07
2024-02-17T05:30:23.604Z,77.96
2024-02-17T05:30:56.300Z,77.93
2024-02-17T05:31:28.994Z,77.74
2024-02-17T05:32:04.126Z,78.15
2024-02-17T05:32:36.073Z,78.42
2024-02-17T05:33:08.945Z,78.02
2024-02-17T05:33:41.242Z,78.14
2024-02-17T05:34:13.456Z,78.24
2024-02-17T05:34:45.581Z,78.13
2024-02-17T05:35:17.814Z,78.14
2024-02-17T05:35:50.922Z,78.15
2024-02-17T05:36:55.586Z,77.50
2024-02-17T05:37:27.604Z,77.83
2024-02-17T05:38:27.351Z,78.22
2024-02-17T05:38:59.305Z,78.08
2024-02-17T05:39:32.906Z,78.43
2024-02-17T05:40:08.378Z,78.17
2024-02-17T05:40:40.428Z,78.19
2024-02-17T05:41:12.352Z,78.37
2024-02-17T05:41:44.557Z,77.87
2024-02-17T05:42:16.640Z,77.95
2024-02-17T05:42:48.675Z,78.16
2024-02-17T05:43:20.690Z,77.85
2024-02-17T05:43:54.086Z,77.70
2024-02-17T05:44:26.428Z,77.28
2024-02-17T05:44:58.470Z,77.00
2024-02-17T05:45:30.813Z,76.71
2024-02-17T05:46:02.880Z,76.74
2024-02-17T05:46:34.803Z,77.00
2024-02-17T05:47:06.785Z,77.14
2024-02-17T05:47:38.758Z,76.44
2024-02-17T05:48:11.327Z,76.39
2024-02-17T05:48:46.463Z,75.87
2024-02-17T05:49:21.352Z,75.85
2024-02-17T05:49:53.422Z,75.93
2024-02-17T05:50:25.833Z,76.14
2024-02-17T05:50:57.718Z,75.63
2024-02-17T05:51:29.838Z,75.81
2024-02-17T05:52:01.747Z,76.21
2024-02-17T05:52:34.282Z,75.95
2024-02-17T05:53:06.395Z,75.44
2024-02-17T05:53:38.452Z,76.13
2024-02-17T05:54:10.389Z,75.80
2024-02-17T05:54:42.386Z,75.68
2024-02-17T05:55:14.296Z,75.88
2024-02-17T05:55:46.355Z,75.85
2024-02-17T05:56:18.357Z,75.72
2024-02-17T05:56:50.674Z,75.84
2024-02-17T05:57:22.612Z,75.76
2024-02-17T05:57:55.216Z,76.09
2024-02-17T05:58:27.170Z,75.90
2024-02-17T05:58:59.123Z,75.58
2024-02-17T05:59:32.038Z,75.99
2024-02-17T06:00:05.370Z,75.66
2024-02-17T06:00:37.436Z,75.71
2024-02-17T06:01:09.789Z,76.25
2024-02-17T06:01:42.596Z,76.65
2024-02-17T06:02:14.587Z,76.17
2024-02-17T06:02:46.563Z,76.78
2024-02-17T06:03:19.083Z,76.00
2024-02-17T06:03:51.714Z,76.41
2024-02-17T06:04:23.862Z,76.13
2024-02-17T06:04:56.682Z,76.35
2024-02-17T06:05:30.303Z,76.46
2024-02-17T06:06:02.255Z,77.12
2024-02-17T06:06:34.926Z,76.83
2024-02-17T06:07:07.016Z,76.10
2024-02-17T06:07:39.128Z,76.90
2024-02-17T06:08:11.387Z,76.14
2024-02-17T06:08:52.329Z,75.84
2024-02-17T06:09:42.684Z,75.02
2024-02-17T06:10:14.931Z,75.24
2024-02-17T06:10:46.934Z,75.27
2024-02-17T06:11:19.011Z,75.01
2024-02-17T06:11:51.128Z,74.30
2024-02-17T06:12:23.026Z,74.54
2024-02-17T06:12:55.084Z,74.84
2024-02-17T06:13:27.047Z,74.16
2024-02-17T06:13:59.015Z,74.67
2024-02-17T06:14:30.963Z,74.61
2024-02-17T06:15:03.017Z,73.80
2024-02-17T06:15:35.909Z,73.96
2024-02-17T06:16:08.273Z,73.70
2024-02-17T06:16:40.331Z,73.55
2024-02-17T06:17:14.294Z,73.90
2024-02-17T06:17:47.990Z,73.50
2024-02-17T06:18:58.356Z,73.45
2024-02-17T06:19:49.173Z,72.54
2024-02-17T06:20:39.675Z,72.43
2024-02-17T06:21:12.374Z,72.41
2024-02-17T06:21:44.696Z,72.52
2024-02-17T06:22:16.659Z,73.05
2024-02-17T06:22:48.542Z,73.45
2024-02-17T06:23:20.486Z,72.99
2024-02-17T06:23:52.937Z,72.92
2024-02-17T06:24:24.908Z,73.56
2024-02-17T06:24:56.926Z,72.97
2024-02-17T06:25:28.939Z,73.79
2024-02-17T06:26:00.926Z,73.57
2024-02-17T06:26:35.594Z,72.99
2024-02-17T06:27:07.657Z,73.30
2024-02-17T06:27:39.749Z,72.73
2024-02-17T06:28:11.662Z,72.19
2024-02-17T06:28:43.533Z,72.00
2024-02-17T06:29:15.464Z,72.48
2024-02-17T06:29:47.563Z,72.14
2024-02-17T06:30:19.742Z,71.58
2024-02-17T06:30:51.985Z,70.66
2024-02-17T06:31:24.768Z,70.16
2024-02-17T06:31:56.731Z,69.67
2024-02-17T06:32:28.724Z,69.67
2024-02-17T06:33:01.214Z,68.62
2024-02-17T06:33:33.324Z,69.24
2024-02-17T06:34:05.741Z,69.05
2024-02-17T06:34:38.028Z,68.25
2024-02-17T06:35:11.169Z,68.48
2024-02-17T06:35:43.203Z,67.80
2024-02-17T06:36:15.425Z,67.24
2024-02-17T06:36:47.409Z,67.46
2024-02-17T06:37:19.326Z,66.66
2024-02-17T06:37:51.288Z,66.59
2024-02-17T06:38:25.175Z,66.62
2024-02-17T06:38:57.309Z,66.52
2024-02-17T06:39:29.244Z,66.39
2024-02-17T06:40:01.876Z,66.53
2024-02-17T06:40:33.934Z,66.12
2024-02-17T06:41:06.296Z,66.37
2024-02-17T06:41:38.197Z,66.09
2024-02-17T06:42:10.164Z,65.90
2024-02-17T06:42:42.213Z,65.93
2024-02-17T06:43:18.124Z,65.62
2024-02-17T06:43:51.850Z,65.61
2024-02-17T06:44:26.925Z,64.86
2024-02-17T06:44:58.897Z,64.31
2024-02-17T06:45:31.153Z,64.19
2024-02-17T06:46:04.140Z,64.10
2024-02-17T06:46:36.078Z,63.75
2024-02-17T06:47:08.165Z,63.16
2024-02-17T06:47:40.132Z,63.14
2024-02-17T06:48:12.764Z,62.54
2024-02-17T06:48:45.232Z,62.82
2024-02-17T06:49:17.477Z,62.74
2024-02-17T06:49:49.676Z,63.02
2024-02-17T06:50:25.318Z,63.74
2024-02-17T06:50:57.924Z,63.46
2024-02-17T06:51:29.838Z,63.94
2024-02-17T06:52:01.920Z,63.75
2024-02-17T06:52:33.929Z,63.25
2024-02-17T06:53:05.928Z,62.69
2024-02-17T06:53:38.322Z,63.31
2024-02-17T06:54:10.306Z,63.57
2024-02-17T06:54:42.787Z,63.89
2024-02-17T06:55:14.797Z,64.04
2024-02-17T06:55:46.990Z,64.06
2024-02-17T06:56:18.942Z,63.79
2024-02-17T06:56:51.308Z,63.93
2024-02-17T06:57:23.287Z,63.55
2024-02-17T06:57:55.293Z,63.37
2024-02-17T06:58:27.293Z,63.11
2024-02-17T06:58:59.156Z,63.15
2024-02-17T06:59:31.038Z,62.75
2024-02-17T07:00:03.278Z,62.88
2024-02-17T07:00:35.331Z,62.62
2024-02-17T07:01:07.351Z,62.24
2024-02-17T07:01:39.352Z,63.20
2024-02-17T07:02:11.371Z,62.69
2024-02-17T07:02:43.252Z,63.31
2024-02-17T07:03:16.381Z,63.17
2024-02-17T07:03:48.810Z,63.08